Fort Story, Virginia
Current Conditions -  °F | °C
As of 7:56 AM on Thursday 23 Oct 2014 (Local Time) from KNTU Reporting Station
Broken Clouds Broken Clouds  
Wind Chill: 55°   Ceiling: 4100
Heat Index: 55°   Visibility: 10mi
Dew Point: 43°   Wind: 14mph
Humidity: 64%   Direction: 310°NW
Pressure: 29.88"   Gusts: NA
Location:  36.922°N, 76.0108°W
Report Text: KNTU 231156Z 31012KT 10SM FEW027 SCT032 BKN041 13/06 A2988 RMK AO2 SLP119 70032 T01280061 10139 20128 51010
Loading
Personal Weather Stations






























Interactive Weather Map New forecast layout! Learn more

10-Day Weather Forecast

Advertisements
Track Severe Weather on mobile